createdAt,value
2018-02-06T00:02:04.795Z,1.00
2018-02-06T00:04:33.063Z,1.10
2018-02-06T00:07:01.303Z,1.10
2018-02-06T00:09:28.818Z,1.00
2018-02-06T00:11:56.317Z,1.00
2018-02-06T00:14:23.790Z,1.00
2018-02-06T00:16:51.363Z,1.00
2018-02-06T00:19:19.605Z,1.00
2018-02-06T00:21:47.083Z,1.00
2018-02-06T00:24:15.343Z,1.00
2018-02-06T00:26:42.815Z,0.90
2018-02-06T00:29:10.290Z,0.90
2018-02-06T00:31:38.630Z,0.90
2018-02-06T00:34:08.030Z,0.90
2018-02-06T00:36:35.510Z,1.00
2018-02-06T00:39:02.991Z,1.00
2018-02-06T00:41:30.470Z,1.00
2018-02-06T00:43:57.940Z,1.00
2018-02-06T00:46:25.445Z,1.00
2018-02-06T00:48:52.893Z,0.90
2018-02-06T00:51:21.136Z,0.90
2018-02-06T00:53:48.638Z,0.90
2018-02-06T00:56:16.119Z,0.90
2018-02-06T00:58:43.592Z,0.90
2018-02-06T01:01:11.070Z,0.90
2018-02-06T01:03:38.538Z,0.90
2018-02-06T01:06:07.068Z,0.90
2018-02-06T01:08:35.425Z,0.80
2018-02-06T01:11:02.895Z,0.80
2018-02-06T01:13:30.369Z,0.80
2018-02-06T01:15:57.858Z,0.80
2018-02-06T01:18:25.362Z,0.80
2018-02-06T01:20:52.839Z,0.70
2018-02-06T01:23:20.319Z,0.80
2018-02-06T01:25:47.787Z,0.80
2018-02-06T01:28:15.264Z,0.80
2018-02-06T01:30:43.519Z,0.80
2018-02-06T01:33:10.988Z,0.80
2018-02-06T01:35:39.232Z,0.80
2018-02-06T01:38:06.815Z,0.80
2018-02-06T01:40:35.062Z,0.80
2018-02-06T01:43:02.548Z,0.80
2018-02-06T01:45:30.806Z,0.80
2018-02-06T01:47:58.269Z,0.80
2018-02-06T01:50:25.751Z,0.70
2018-02-06T01:52:53.998Z,0.70
2018-02-06T01:55:21.464Z,0.70
2018-02-06T01:57:49.706Z,0.70
2018-02-06T02:00:17.278Z,0.70
2018-02-06T02:02:44.758Z,0.70
2018-02-06T02:05:12.999Z,0.70
2018-02-06T02:07:40.575Z,0.70
2018-02-06T02:10:08.035Z,0.70
2018-02-06T02:12:36.273Z,0.70
2018-02-06T02:15:03.767Z,0.70
2018-02-06T02:17:31.998Z,0.70
2018-02-06T02:19:59.466Z,0.70
2018-02-06T02:22:26.970Z,0.70
2018-02-06T02:24:54.458Z,0.70
2018-02-06T02:27:21.936Z,0.70
2018-02-06T02:29:49.412Z,0.70
2018-02-06T02:32:16.872Z,0.70
2018-02-06T02:34:45.124Z,0.60
2018-02-06T02:37:12.608Z,0.60
2018-02-06T02:39:40.079Z,0.60
2018-02-06T04:40:19.279Z,0.30
2018-02-06T04:42:47.528Z,0.40
2018-02-06T04:45:14.997Z,0.30
2018-02-06T04:47:42.490Z,0.40
2018-02-06T04:50:09.950Z,0.40
2018-02-06T04:52:38.249Z,0.50
2018-02-06T04:55:06.471Z,0.50
2018-02-06T04:57:33.974Z,0.50
2018-02-06T05:00:02.257Z,0.50
2018-02-06T05:02:29.718Z,0.50
2018-02-06T05:04:57.201Z,0.50
2018-02-06T05:07:24.741Z,0.50
2018-02-06T05:09:52.350Z,0.50
2018-02-06T05:12:20.222Z,0.50
2018-02-06T05:14:48.759Z,0.50
2018-02-06T05:17:16.309Z,0.50
2018-02-06T05:19:43.800Z,0.50
2018-02-06T05:22:11.265Z,0.50
2018-02-06T05:24:39.574Z,0.50
2018-02-06T05:27:07.057Z,0.50
2018-02-06T05:29:34.542Z,0.50
2018-02-06T05:32:02.007Z,0.50
2018-02-06T05:34:29.497Z,0.40
2018-02-06T05:36:56.969Z,0.40
2018-02-06T05:39:24.468Z,0.40
2018-02-06T05:41:51.944Z,0.50
2018-02-06T05:44:20.254Z,0.50
2018-02-06T05:46:47.740Z,0.50
2018-02-06T05:49:15.201Z,0.40
2018-02-06T05:51:42.692Z,0.40
2018-02-06T05:54:10.944Z,0.40
2018-02-06T05:56:38.412Z,0.40
2018-02-06T05:59:06.666Z,0.40
2018-02-06T06:01:34.128Z,0.40
2018-02-06T06:04:01.627Z,0.40
2018-02-06T06:06:29.100Z,0.50
2018-02-06T06:08:56.877Z,0.50
2018-02-06T06:11:24.358Z,0.50
2018-02-06T06:13:51.829Z,0.50
2018-02-06T06:16:20.094Z,0.50
2018-02-06T06:18:47.560Z,0.40
2018-02-06T06:21:15.052Z,0.40
2018-02-06T06:23:42.516Z,0.50
2018-02-06T06:26:10.003Z,0.40
2018-02-06T06:28:38.276Z,0.40
2018-02-06T06:31:05.748Z,0.40
2018-02-06T06:33:33.226Z,0.40
2018-02-06T06:36:01.489Z,0.40
2018-02-06T06:38:29.720Z,0.40
2018-02-06T06:40:57.191Z,0.40
2018-02-06T06:43:24.666Z,0.40
2018-02-06T06:45:52.128Z,0.40
2018-02-06T06:48:19.624Z,0.40
2018-02-06T06:50:47.118Z,0.40
2018-02-06T06:53:14.840Z,0.40
2018-02-06T06:55:42.350Z,0.40
2018-02-06T06:58:09.811Z,0.50
2018-02-06T07:00:37.276Z,0.50
2018-02-06T07:03:05.540Z,0.50
2018-02-06T07:05:33.006Z,0.50
2018-02-06T07:08:00.492Z,0.50
2018-02-06T07:10:27.959Z,0.50
2018-02-06T07:12:55.444Z,0.50
2018-02-06T07:15:22.909Z,0.50
2018-02-06T07:17:50.402Z,0.50
2018-02-06T07:20:18.654Z,0.40
2018-02-06T07:22:46.140Z,0.40
2018-02-06T07:25:13.606Z,0.40
2018-02-06T07:27:41.098Z,0.40
2018-02-06T07:30:08.594Z,0.30
2018-02-06T07:32:36.822Z,0.30
2018-02-06T07:35:04.318Z,0.30
2018-02-06T07:37:32.566Z,0.20
2018-02-06T07:40:00.023Z,0.20
2018-02-06T07:42:27.506Z,0.20
2018-02-06T07:44:55.749Z,0.10
2018-02-06T07:47:23.219Z,0.10
2018-02-06T07:49:50.689Z,0.10
2018-02-06T07:52:18.190Z,0.10
2018-02-06T07:54:45.654Z,0.10
2018-02-06T07:57:13.150Z,0.10
2018-02-06T07:59:40.633Z,0.10
2018-02-06T08:02:08.863Z,0.20
2018-02-06T08:04:36.345Z,0.20
2018-02-06T08:07:04.582Z,0.20
2018-02-06T08:09:32.072Z,0.20
2018-02-06T08:11:59.533Z,0.30
2018-02-06T08:14:27.789Z,0.30
2018-02-06T08:16:55.249Z,0.30
2018-02-06T08:19:22.714Z,0.30
2018-02-06T08:21:50.978Z,0.40
2018-02-06T08:24:18.434Z,0.30
2018-02-06T08:26:45.930Z,0.30
2018-02-06T08:29:13.392Z,0.40
2018-02-06T08:31:40.877Z,0.40
2018-02-06T08:34:08.350Z,0.40
2018-02-06T08:36:35.841Z,0.40
2018-02-06T08:39:04.093Z,0.40
2018-02-06T08:41:31.593Z,0.50
2018-02-06T08:43:59.060Z,0.50
2018-02-06T08:46:26.522Z,0.50
2018-02-06T08:48:54.015Z,0.50
2018-02-06T08:51:21.509Z,0.50
2018-02-06T08:53:49.033Z,0.50
2018-02-06T08:56:16.488Z,0.50
2018-02-06T08:58:43.953Z,0.50
2018-02-06T09:01:12.201Z,0.60
2018-02-06T09:03:39.671Z,0.60
2018-02-06T09:06:07.164Z,0.60
2018-02-06T09:08:34.620Z,0.70
2018-02-06T09:11:02.132Z,0.70
2018-02-06T09:13:29.611Z,0.80
2018-02-06T09:15:57.841Z,1.00
2018-02-06T09:18:25.325Z,1.00
2018-02-06T09:20:52.785Z,1.10
2018-02-06T09:23:20.276Z,1.20
2018-02-06T09:25:47.760Z,1.20
2018-02-06T09:28:15.217Z,1.30
2018-02-06T09:30:42.722Z,1.40
2018-02-06T09:33:10.967Z,1.50
2018-02-06T09:35:38.441Z,1.50
2018-02-06T09:38:05.922Z,1.60
2018-02-06T09:40:34.180Z,1.80
2018-02-06T09:43:02.405Z,1.80
2018-02-06T09:45:29.916Z,1.80
2018-02-06T09:47:57.397Z,1.90
2018-02-06T09:50:24.858Z,2.00
2018-02-06T09:52:52.326Z,2.00
2018-02-06T09:55:19.824Z,2.10
2018-02-06T09:57:47.312Z,2.20
2018-02-06T10:00:14.798Z,2.20
2018-02-06T10:02:42.285Z,2.30
2018-02-06T10:05:09.776Z,2.30
2018-02-06T10:07:37.261Z,2.40
2018-02-06T10:10:04.771Z,2.40
2018-02-06T10:12:32.224Z,2.60
2018-02-06T10:15:00.465Z,2.80
2018-02-06T10:17:27.964Z,2.80
2018-02-06T10:19:56.203Z,3.00
2018-02-06T10:22:23.706Z,2.90
2018-02-06T10:24:51.170Z,3.00
2018-02-06T10:27:18.634Z,3.10
2018-02-06T10:29:46.117Z,3.20
2018-02-06T10:32:13.590Z,3.20
2018-02-06T10:34:41.074Z,3.30
2018-02-06T10:37:09.301Z,3.30
2018-02-06T10:39:36.804Z,3.30
2018-02-06T10:42:05.033Z,3.40
2018-02-06T10:44:32.501Z,3.40
2018-02-06T10:46:59.979Z,3.40
2018-02-06T10:49:27.438Z,3.40
2018-02-06T10:51:55.731Z,3.40
2018-02-06T10:54:23.953Z,3.40
2018-02-06T10:56:51.429Z,3.40
2018-02-06T10:59:18.893Z,3.40
2018-02-06T11:01:47.154Z,3.50
2018-02-06T11:04:14.618Z,3.40
2018-02-06T11:06:42.098Z,3.50
2018-02-06T11:09:10.333Z,3.60
2018-02-06T11:11:37.812Z,3.60
2018-02-06T11:14:05.297Z,3.70
2018-02-06T11:16:32.788Z,3.70
2018-02-06T11:19:00.248Z,3.80
2018-02-06T11:21:27.733Z,3.90
2018-02-06T11:23:55.199Z,4.00
2018-02-06T11:26:22.676Z,4.00
2018-02-06T11:28:50.138Z,4.10
2018-02-06T11:31:17.629Z,4.20
2018-02-06T11:33:45.119Z,4.30
2018-02-06T11:36:12.585Z,4.40
2018-02-06T11:38:40.855Z,4.60
2018-02-06T11:41:09.090Z,4.70
2018-02-06T11:43:36.549Z,4.70
2018-02-06T11:46:04.043Z,4.80
2018-02-06T11:48:31.497Z,4.80
2018-02-06T11:50:59.747Z,4.90
2018-02-06T11:53:27.233Z,4.90
2018-02-06T11:55:55.480Z,4.90
2018-02-06T11:58:22.941Z,4.90
2018-02-06T12:00:50.425Z,4.90
2018-02-06T12:03:18.664Z,5.00
2018-02-06T12:05:46.158Z,5.00
2018-02-06T12:08:14.405Z,5.10
2018-02-06T12:10:41.901Z,5.10
2018-02-06T12:13:13.448Z,5.10
2018-02-06T12:15:40.964Z,5.10
2018-02-06T12:18:08.443Z,5.10
2018-02-06T12:20:36.665Z,5.30
2018-02-06T12:23:04.180Z,5.30
2018-02-06T12:25:32.396Z,5.60
2018-02-06T12:27:59.853Z,5.60
2018-02-06T12:30:27.324Z,5.70
2018-02-06T12:32:54.790Z,5.90
2018-02-06T12:35:22.257Z,6.10
2018-02-06T12:37:49.741Z,6.40
2018-02-06T12:40:17.228Z,6.60
2018-02-06T12:42:44.690Z,6.90
2018-02-06T12:45:12.170Z,7.20
2018-02-06T12:47:39.633Z,7.40
2018-02-06T12:50:07.087Z,7.60
2018-02-06T12:52:34.554Z,7.80
2018-02-06T12:55:02.777Z,8.20
2018-02-06T12:57:30.234Z,8.20
2018-02-06T12:59:58.042Z,8.40
2018-02-06T13:02:25.494Z,8.50
2018-02-06T13:04:52.953Z,8.80
2018-02-06T13:07:20.440Z,9.00
2018-02-06T13:09:47.904Z,9.10
2018-02-06T13:12:15.353Z,9.10
2018-02-06T13:14:42.916Z,9.30
2018-02-06T13:17:10.379Z,9.50
2018-02-06T13:19:37.841Z,9.70
2018-02-06T13:22:05.311Z,9.90
2018-02-06T13:24:33.537Z,10.60
2018-02-06T13:27:01.797Z,10.90
2018-02-06T13:29:29.384Z,10.80
2018-02-06T13:31:56.836Z,11.10
2018-02-06T13:34:24.292Z,11.40
2018-02-06T13:36:51.781Z,11.80
2018-02-06T13:39:19.235Z,12.10
2018-02-06T13:41:46.700Z,12.30
2018-02-06T13:44:14.190Z,12.40
2018-02-06T13:46:41.637Z,12.50
2018-02-06T13:49:09.101Z,12.70
2018-02-06T13:51:36.749Z,12.80
2018-02-06T13:54:04.210Z,12.90
2018-02-06T13:56:31.665Z,12.70
2018-02-06T13:58:59.138Z,12.70
2018-02-06T14:01:27.457Z,12.10
2018-02-06T14:03:54.945Z,12.00
2018-02-06T14:06:22.428Z,11.80
2018-02-06T14:08:50.658Z,11.30
2018-02-06T14:11:18.197Z,11.30
2018-02-06T14:13:45.661Z,11.00
2018-02-06T14:16:13.142Z,10.90
2018-02-06T14:18:40.605Z,11.00
2018-02-06T14:21:08.093Z,11.10
2018-02-06T14:23:36.321Z,11.20
2018-02-06T14:26:03.800Z,11.20
2018-02-06T14:28:31.257Z,11.30
2018-02-06T14:30:58.746Z,11.20
2018-02-06T14:33:26.218Z,11.00
2018-02-06T14:35:53.708Z,10.80
2018-02-06T14:38:21.862Z,10.50
2018-02-06T14:40:49.329Z,10.30
2018-02-06T14:43:16.813Z,10.00
2018-02-06T14:45:45.044Z,9.60
2018-02-06T14:48:12.521Z,9.60
2018-02-06T14:50:40.009Z,9.50
2018-02-06T14:53:08.259Z,9.20
2018-02-06T14:55:35.745Z,9.20
2018-02-06T14:58:03.972Z,9.00
2018-02-06T15:00:31.470Z,9.00
2018-02-06T15:02:59.696Z,8.80
2018-02-06T15:05:27.153Z,8.80
2018-02-06T15:07:54.643Z,8.80
2018-02-06T15:10:22.096Z,8.70
2018-02-06T15:12:49.579Z,8.70
2018-02-06T15:15:17.821Z,8.70
2018-02-06T15:17:45.285Z,8.70
2018-02-06T15:20:12.749Z,8.80
2018-02-06T15:22:40.993Z,8.80
2018-02-06T15:25:08.472Z,8.80
2018-02-06T15:27:35.928Z,8.90
2018-02-06T15:30:04.193Z,8.60
2018-02-06T15:32:31.653Z,8.60
2018-02-06T15:34:59.108Z,8.50
2018-02-06T15:37:26.573Z,8.30
2018-02-06T15:39:54.812Z,7.90
2018-02-06T15:42:22.298Z,7.90
2018-02-06T15:44:50.548Z,7.60
2018-02-06T15:47:18.098Z,7.60
2018-02-06T15:49:45.594Z,7.40
2018-02-06T15:52:13.045Z,7.30
2018-02-06T15:54:40.542Z,7.20
2018-02-06T15:57:08.042Z,7.10
2018-02-06T15:59:35.505Z,7.00
2018-02-06T16:02:02.988Z,6.90
2018-02-06T16:04:31.225Z,6.70
2018-02-06T16:06:58.713Z,6.70
2018-02-06T16:09:27.037Z,6.40
2018-02-06T16:12:00.067Z,6.40
2018-02-06T16:14:28.080Z,6.30
2018-02-06T16:16:59.853Z,6.10
2018-02-06T16:19:27.326Z,6.00
2018-02-06T16:21:54.792Z,5.80
2018-02-06T16:24:22.299Z,5.70
2018-02-06T16:26:49.774Z,5.50
2018-02-06T16:29:17.269Z,5.40
2018-02-06T16:31:44.732Z,5.20
2018-02-06T16:34:12.988Z,5.00
2018-02-06T16:36:40.478Z,5.00
2018-02-06T16:39:08.706Z,4.80
2018-02-06T16:41:36.205Z,4.80
2018-02-06T16:44:04.430Z,4.60
2018-02-06T16:46:31.914Z,4.60
2018-02-06T16:48:59.373Z,4.50
2018-02-06T16:51:27.646Z,4.30
2018-02-06T16:53:55.101Z,4.30
2018-02-06T16:56:23.363Z,4.10
2018-02-06T16:58:50.821Z,4.10
2018-02-06T17:01:18.326Z,4.10
2018-02-06T17:03:45.786Z,4.00
2018-02-06T17:06:13.257Z,4.00
2018-02-06T17:08:40.740Z,3.90
2018-02-06T17:11:08.205Z,3.80
2018-02-06T17:13:35.693Z,3.80
2018-02-06T17:16:03.206Z,3.70
2018-02-06T17:18:30.676Z,3.70
2018-02-06T17:20:58.160Z,3.60
2018-02-06T17:23:25.670Z,3.60
2018-02-06T17:25:53.164Z,3.50
2018-02-06T17:28:21.381Z,3.50
2018-02-06T17:30:48.856Z,3.50
2018-02-06T17:33:16.330Z,3.60
2018-02-06T17:35:43.825Z,3.60
2018-02-06T17:38:11.675Z,3.60
2018-02-06T17:40:39.180Z,3.70
2018-02-06T17:43:06.703Z,3.70
2018-02-06T17:45:34.302Z,3.70
2018-02-06T17:48:01.840Z,3.80
2018-02-06T17:50:29.320Z,3.80
2018-02-06T17:52:56.809Z,3.90
2018-02-06T17:55:25.356Z,3.90
2018-02-06T17:57:54.445Z,3.90
2018-02-06T18:00:21.982Z,3.90
2018-02-06T18:02:49.491Z,3.90
2018-02-06T18:05:17.760Z,3.80
2018-02-06T18:07:46.093Z,3.80
2018-02-06T18:10:13.587Z,3.80
2018-02-06T18:12:41.130Z,3.80
2018-02-06T18:15:08.661Z,3.70
2018-02-06T18:17:36.226Z,3.70
2018-02-06T18:20:03.718Z,3.70
2018-02-06T18:22:31.197Z,3.70
2018-02-06T18:24:58.737Z,3.60
2018-02-06T18:27:27.077Z,3.60
2018-02-06T18:29:54.800Z,3.50
2018-02-06T18:32:22.412Z,3.50
2018-02-06T18:34:49.899Z,3.50
2018-02-06T18:37:18.264Z,3.50
2018-02-06T18:39:45.688Z,3.50
2018-02-06T18:42:13.237Z,3.50
2018-02-06T18:44:41.432Z,3.40
2018-02-06T18:47:08.927Z,3.40
2018-02-06T18:49:37.153Z,3.40
2018-02-06T18:52:04.649Z,3.40
2018-02-06T18:54:32.885Z,3.30
2018-02-06T18:57:00.386Z,3.30
2018-02-06T18:59:28.664Z,3.30
2018-02-06T19:01:56.888Z,3.20
2018-02-06T19:04:24.397Z,3.20
2018-02-06T19:06:51.861Z,3.20
2018-02-06T19:09:19.428Z,3.20
2018-02-06T19:11:46.913Z,3.20
2018-02-06T19:14:14.405Z,3.20
2018-02-06T19:16:42.677Z,3.10
2018-02-06T19:19:10.956Z,3.10
2018-02-06T19:21:38.387Z,3.10
2018-02-06T19:24:05.913Z,3.00
2018-02-06T19:26:33.408Z,3.00
2018-02-06T19:29:00.872Z,3.00
2018-02-06T19:31:29.139Z,3.00
2018-02-06T19:33:56.752Z,3.00
2018-02-06T19:36:24.353Z,3.00
2018-02-06T19:38:51.926Z,3.00
2018-02-06T19:41:19.430Z,2.90
2018-02-06T19:43:46.968Z,2.90
2018-02-06T19:46:14.453Z,2.90
2018-02-06T19:48:41.991Z,2.90
2018-02-06T19:51:09.468Z,2.80
2018-02-06T19:53:37.021Z,2.80
2018-02-06T19:56:04.496Z,2.80
2018-02-06T19:58:32.009Z,2.80
2018-02-06T20:01:00.443Z,2.80
2018-02-06T20:03:27.962Z,2.80
2018-02-06T20:05:55.472Z,2.70
2018-02-06T20:08:22.970Z,2.80
2018-02-06T20:10:50.482Z,2.70
2018-02-06T20:13:18.227Z,2.70
2018-02-06T20:15:45.755Z,2.70
2018-02-06T20:18:13.276Z,2.70
2018-02-06T20:20:41.536Z,2.70
2018-02-06T20:23:09.039Z,2.70
2018-02-06T20:28:32.161Z,2.70
2018-02-06T20:30:59.642Z,2.60
2018-02-06T20:33:27.896Z,2.60
2018-02-06T20:35:56.187Z,2.60
2018-02-06T20:38:24.442Z,2.50
2018-02-06T20:40:51.980Z,2.50
2018-02-06T20:43:40.284Z,2.50
2018-02-06T20:46:07.762Z,2.50
2018-02-06T20:48:35.224Z,2.40
2018-02-06T20:53:54.808Z,2.30
2018-02-06T20:56:22.323Z,2.30
2018-02-06T20:58:50.608Z,2.30
2018-02-06T21:01:18.848Z,2.30
2018-02-06T21:03:46.326Z,2.30
2018-02-06T21:06:14.590Z,2.20
2018-02-06T21:08:42.908Z,2.20
2018-02-06T21:11:11.138Z,2.20
2018-02-06T21:13:39.406Z,2.20
2018-02-06T21:16:06.893Z,2.10
2018-02-06T21:18:34.361Z,2.10
2018-02-06T21:21:01.862Z,2.10
2018-02-06T21:23:30.285Z,2.00
2018-02-06T21:25:57.826Z,2.00
2018-02-06T21:28:25.296Z,1.90
2018-02-06T21:30:52.844Z,1.90
2018-02-06T21:33:21.077Z,1.80
2018-02-06T21:35:48.577Z,1.80
2018-02-06T21:38:16.101Z,1.80
2018-02-06T21:40:43.589Z,1.70
2018-02-06T21:43:11.812Z,1.70
2018-02-06T21:45:39.304Z,1.70
2018-02-06T21:48:07.565Z,1.60
2018-02-06T21:50:35.042Z,1.60
2018-02-06T21:53:03.305Z,1.60
2018-02-06T21:55:30.790Z,1.60
2018-02-06T21:57:58.288Z,1.60
2018-02-06T22:00:25.756Z,1.60
2018-02-06T22:02:53.241Z,1.60
2018-02-06T22:05:21.478Z,1.60
2018-02-06T22:07:48.964Z,1.60
2018-02-06T22:10:17.297Z,1.60
2018-02-06T22:12:44.753Z,1.60
2018-02-06T22:15:12.240Z,1.60
2018-02-06T22:17:39.720Z,1.60
2018-02-06T22:20:07.213Z,1.60
2018-02-06T22:22:34.693Z,1.60
2018-02-06T22:25:02.157Z,1.60
2018-02-06T22:27:29.649Z,1.60
2018-02-06T22:29:57.146Z,1.60
2018-02-06T22:32:24.616Z,1.60
2018-02-06T22:34:52.120Z,1.60
2018-02-06T22:37:20.368Z,1.50
2018-02-06T22:39:48.600Z,1.50
2018-02-06T22:42:16.097Z,1.50
2018-02-06T22:44:43.561Z,1.50
2018-02-06T22:47:11.797Z,1.50
2018-02-06T22:49:39.415Z,1.50
2018-02-06T22:52:07.643Z,1.50
2018-02-06T22:54:35.130Z,1.40
2018-02-06T22:57:03.385Z,1.40
2018-02-06T22:59:30.852Z,1.40
2018-02-06T23:01:58.362Z,1.40
2018-02-06T23:04:25.816Z,1.40
2018-02-06T23:06:53.286Z,1.40
2018-02-06T23:09:20.838Z,1.40
2018-02-06T23:11:48.310Z,1.40
2018-02-06T23:14:15.806Z,1.40
2018-02-06T23:16:44.036Z,1.40
2018-02-06T23:19:11.514Z,1.40
2018-02-06T23:21:39.057Z,1.40
2018-02-06T23:24:06.522Z,1.40
2018-02-06T23:26:34.003Z,1.30
2018-02-06T23:29:02.238Z,1.30
2018-02-06T23:31:29.729Z,1.30
2018-02-06T23:33:57.960Z,1.30
2018-02-06T23:36:25.433Z,1.30
2018-02-06T23:38:52.929Z,1.30
2018-02-06T23:41:20.400Z,1.30
2018-02-06T23:43:47.878Z,1.30
2018-02-06T23:46:15.365Z,1.30
2018-02-06T23:48:42.825Z,1.30
2018-02-06T23:51:10.308Z,1.30
2018-02-06T23:53:37.794Z,1.20
2018-02-06T23:56:05.274Z,1.20
2018-02-06T23:58:32.758Z,1.20
